sensor_id;sensor_type;location;lat;lon;timestamp;P1;durP1;ratioP1;P2;durP2;ratioP2
61015;SDS011;46902;52.920;6.536;2023-07-24T00:02:13;11.75;;;6.82;;
61015;SDS011;46902;52.920;6.536;2023-07-24T00:04:39;15.27;;;7.00;;
61015;SDS011;46902;52.920;6.536;2023-07-24T00:07:05;15.18;;;7.05;;
61015;SDS011;46902;52.920;6.536;2023-07-24T00:09:30;13.68;;;7.45;;
61015;SDS011;46902;52.920;6.536;2023-07-24T00:11:56;11.50;;;7.28;;
61015;SDS011;46902;52.920;6.536;2023-07-24T00:14:22;11.15;;;7.20;;
61015;SDS011;46902;52.920;6.536;2023-07-24T00:16:48;10.40;;;6.90;;
61015;SDS011;46902;52.920;6.536;2023-07-24T00:19:13;12.02;;;7.03;;
61015;SDS011;46902;52.920;6.536;2023-07-24T00:21:39;15.60;;;7.82;;
61015;SDS011;46902;52.920;6.536;2023-07-24T00:24:04;13.85;;;8.27;;
61015;SDS011;46902;52.920;6.536;2023-07-24T00:26:30;12.63;;;8.13;;
61015;SDS011;46902;52.920;6.536;2023-07-24T00:28:56;13.32;;;7.57;;
61015;SDS011;46902;52.920;6.536;2023-07-24T00:31:21;13.85;;;7.72;;
61015;SDS011;46902;52.920;6.536;2023-07-24T00:33:47;12.60;;;7.97;;
61015;SDS011;46902;52.920;6.536;2023-07-24T00:36:12;10.32;;;7.95;;
61015;SDS011;46902;52.920;6.536;2023-07-24T00:38:38;11.95;;;7.75;;
61015;SDS011;46902;52.920;6.536;2023-07-24T00:41:04;12.93;;;8.20;;
61015;SDS011;46902;52.920;6.536;2023-07-24T00:43:30;10.95;;;8.15;;
61015;SDS011;46902;52.920;6.536;2023-07-24T00:45:56;13.60;;;9.07;;
61015;SDS011;46902;52.920;6.536;2023-07-24T00:48:22;11.25;;;8.93;;
61015;SDS011;46902;52.920;6.536;2023-07-24T00:50:48;12.93;;;9.07;;
61015;SDS011;46902;52.920;6.536;2023-07-24T00:53:14;11.98;;;10.02;;
61015;SDS011;46902;52.920;6.536;2023-07-24T00:55:42;12.95;;;9.85;;
61015;SDS011;46902;52.920;6.536;2023-07-24T00:58:08;11.40;;;10.10;;
61015;SDS011;46902;52.920;6.536;2023-07-24T01:00:38;13.00;;;10.90;;
61015;SDS011;46902;52.920;6.536;2023-07-24T01:03:04;13.27;;;11.90;;
61015;SDS011;46902;52.920;6.536;2023-07-24T01:05:29;13.55;;;12.10;;
61015;SDS011;46902;52.920;6.536;2023-07-24T01:07:55;14.50;;;12.85;;
61015;SDS011;46902;52.920;6.536;2023-07-24T01:10:21;16.08;;;13.18;;
61015;SDS011;46902;52.920;6.536;2023-07-24T01:12:51;15.10;;;13.60;;
61015;SDS011;46902;52.920;6.536;2023-07-24T01:15:28;14.30;;;12.80;;
61015;SDS011;46902;52.920;6.536;2023-07-24T01:18:02;14.77;;;13.27;;
61015;SDS011;46902;52.920;6.536;2023-07-24T01:20:32;12.90;;;11.60;;
61015;SDS011;46902;52.920;6.536;2023-07-24T01:26:05;13.57;;;11.88;;
61015;SDS011;46902;52.920;6.536;2023-07-24T01:28:32;12.07;;;10.82;;
61015;SDS011;46902;52.920;6.536;2023-07-24T01:30:58;13.77;;;12.38;;
61015;SDS011;46902;52.920;6.536;2023-07-24T01:33:24;12.27;;;10.75;;
61015;SDS011;46902;52.920;6.536;2023-07-24T01:35:52;13.23;;;11.25;;
61015;SDS011;46902;52.920;6.536;2023-07-24T01:38:20;13.50;;;10.32;;
61015;SDS011;46902;52.920;6.536;2023-07-24T01:40:46;11.57;;;9.80;;
61015;SDS011;46902;52.920;6.536;2023-07-24T01:43:13;12.50;;;10.25;;
61015;SDS011;46902;52.920;6.536;2023-07-24T01:45:39;11.63;;;10.20;;
61015;SDS011;46902;52.920;6.536;2023-07-24T01:48:05;11.15;;;9.80;;
61015;SDS011;46902;52.920;6.536;2023-07-24T01:50:31;10.88;;;9.25;;
61015;SDS011;46902;52.920;6.536;2023-07-24T01:52:57;11.68;;;9.23;;
61015;SDS011;46902;52.920;6.536;2023-07-24T01:55:23;12.18;;;9.90;;
61015;SDS011;46902;52.920;6.536;2023-07-24T01:57:48;10.15;;;9.13;;
61015;SDS011;46902;52.920;6.536;2023-07-24T02:00:14;12.13;;;9.35;;
61015;SDS011;46902;52.920;6.536;2023-07-24T02:02:39;12.40;;;9.20;;
61015;SDS011;46902;52.920;6.536;2023-07-24T02:05:05;9.63;;;8.57;;
61015;SDS011;46902;52.920;6.536;2023-07-24T02:07:31;14.55;;;8.95;;
61015;SDS011;46902;52.920;6.536;2023-07-24T02:09:56;11.80;;;9.82;;
61015;SDS011;46902;52.920;6.536;2023-07-24T02:12:22;10.75;;;9.65;;
61015;SDS011;46902;52.920;6.536;2023-07-24T02:14:48;10.93;;;8.95;;
61015;SDS011;46902;52.920;6.536;2023-07-24T02:17:15;10.93;;;9.30;;
61015;SDS011;46902;52.920;6.536;2023-07-24T02:19:41;11.55;;;9.40;;
61015;SDS011;46902;52.920;6.536;2023-07-24T02:22:06;10.80;;;9.50;;
61015;SDS011;46902;52.920;6.536;2023-07-24T02:24:32;10.80;;;9.57;;
61015;SDS011;46902;52.920;6.536;2023-07-24T02:26:58;11.30;;;10.20;;
61015;SDS011;46902;52.920;6.536;2023-07-24T02:29:24;11.77;;;9.20;;
61015;SDS011;46902;52.920;6.536;2023-07-24T02:31:50;11.00;;;9.77;;
61015;SDS011;46902;52.920;6.536;2023-07-24T02:34:15;14.65;;;9.88;;
61015;SDS011;46902;52.920;6.536;2023-07-24T02:36:41;14.25;;;10.10;;
61015;SDS011;46902;52.920;6.536;2023-07-24T02:39:07;10.52;;;9.30;;
61015;SDS011;46902;52.920;6.536;2023-07-24T02:41:33;10.82;;;9.00;;
61015;SDS011;46902;52.920;6.536;2023-07-24T02:43:58;10.75;;;9.52;;
61015;SDS011;46902;52.920;6.536;2023-07-24T02:46:24;10.55;;;9.45;;
61015;SDS011;46902;52.920;6.536;2023-07-24T02:48:50;10.70;;;9.48;;
61015;SDS011;46902;52.920;6.536;2023-07-24T02:51:17;10.98;;;9.65;;
61015;SDS011;46902;52.920;6.536;2023-07-24T02:53:43;11.10;;;9.52;;
61015;SDS011;46902;52.920;6.536;2023-07-24T02:56:09;12.13;;;9.50;;
61015;SDS011;46902;52.920;6.536;2023-07-24T02:58:34;11.48;;;9.63;;
61015;SDS011;46902;52.920;6.536;2023-07-24T03:01:03;13.85;;;9.00;;
61015;SDS011;46902;52.920;6.536;2023-07-24T03:03:31;10.88;;;9.38;;
61015;SDS011;46902;52.920;6.536;2023-07-24T03:05:57;10.73;;;8.98;;
61015;SDS011;46902;52.920;6.536;2023-07-24T03:08:23;12.35;;;8.70;;
61015;SDS011;46902;52.920;6.536;2023-07-24T03:10:48;10.93;;;9.82;;
61015;SDS011;46902;52.920;6.536;2023-07-24T03:13:14;11.25;;;9.82;;
61015;SDS011;46902;52.920;6.536;2023-07-24T03:15:40;10.27;;;9.27;;
61015;SDS011;46902;52.920;6.536;2023-07-24T03:18:05;12.13;;;9.55;;
61015;SDS011;46902;52.920;6.536;2023-07-24T03:20:31;10.07;;;8.98;;
61015;SDS011;46902;52.920;6.536;2023-07-24T03:22:57;12.20;;;9.65;;
61015;SDS011;46902;52.920;6.536;2023-07-24T03:25:22;11.07;;;9.80;;
61015;SDS011;46902;52.920;6.536;2023-07-24T03:27:48;9.68;;;8.77;;
61015;SDS011;46902;52.920;6.536;2023-07-24T03:30:14;10.43;;;8.70;;
61015;SDS011;46902;52.920;6.536;2023-07-24T03:32:39;10.18;;;9.05;;
61015;SDS011;46902;52.920;6.536;2023-07-24T03:35:05;9.32;;;8.27;;
61015;SDS011;46902;52.920;6.536;2023-07-24T03:37:33;11.48;;;8.82;;
61015;SDS011;46902;52.920;6.536;2023-07-24T03:39:59;9.82;;;8.90;;
61015;SDS011;46902;52.920;6.536;2023-07-24T03:42:26;10.27;;;8.40;;
61015;SDS011;46902;52.920;6.536;2023-07-24T03:44:53;9.63;;;8.63;;
61015;SDS011;46902;52.920;6.536;2023-07-24T03:47:19;11.00;;;8.45;;
61015;SDS011;46902;52.920;6.536;2023-07-24T03:49:45;10.82;;;8.00;;
61015;SDS011;46902;52.920;6.536;2023-07-24T03:52:10;10.70;;;8.65;;
61015;SDS011;46902;52.920;6.536;2023-07-24T03:54:36;9.35;;;8.30;;
61015;SDS011;46902;52.920;6.536;2023-07-24T03:57:02;9.50;;;8.50;;
61015;SDS011;46902;52.920;6.536;2023-07-24T03:59:29;11.95;;;8.52;;
61015;SDS011;46902;52.920;6.536;2023-07-24T04:01:55;9.07;;;8.18;;
61015;SDS011;46902;52.920;6.536;2023-07-24T04:04:21;9.27;;;8.35;;
61015;SDS011;46902;52.920;6.536;2023-07-24T04:06:46;10.88;;;9.45;;
61015;SDS011;46902;52.920;6.536;2023-07-24T04:09:12;10.32;;;9.30;;
61015;SDS011;46902;52.920;6.536;2023-07-24T04:11:41;9.48;;;8.45;;
61015;SDS011;46902;52.920;6.536;2023-07-24T04:14:10;10.48;;;8.88;;
61015;SDS011;46902;52.920;6.536;2023-07-24T04:16:35;9.40;;;8.32;;
61015;SDS011;46902;52.920;6.536;2023-07-24T04:19:01;11.27;;;8.43;;
61015;SDS011;46902;52.920;6.536;2023-07-24T04:21:27;10.68;;;8.43;;
61015;SDS011;46902;52.920;6.536;2023-07-24T04:23:53;14.18;;;9.20;;
61015;SDS011;46902;52.920;6.536;2023-07-24T04:26:18;12.45;;;8.88;;
61015;SDS011;46902;52.920;6.536;2023-07-24T04:28:44;11.32;;;9.57;;
61015;SDS011;46902;52.920;6.536;2023-07-24T04:31:10;13.82;;;9.27;;
61015;SDS011;46902;52.920;6.536;2023-07-24T04:33:35;11.27;;;8.98;;
61015;SDS011;46902;52.920;6.536;2023-07-24T04:36:01;11.70;;;8.85;;
61015;SDS011;46902;52.920;6.536;2023-07-24T04:38:26;11.52;;;9.10;;
61015;SDS011;46902;52.920;6.536;2023-07-24T04:40:52;14.00;;;9.27;;
61015;SDS011;46902;52.920;6.536;2023-07-24T04:43:18;9.55;;;8.55;;
61015;SDS011;46902;52.920;6.536;2023-07-24T04:45:43;10.07;;;9.00;;
61015;SDS011;46902;52.920;6.536;2023-07-24T04:48:09;9.70;;;8.80;;
61015;SDS011;46902;52.920;6.536;2023-07-24T04:50:34;10.57;;;9.57;;
61015;SDS011;46902;52.920;6.536;2023-07-24T04:53:00;9.73;;;8.73;;
61015;SDS011;46902;52.920;6.536;2023-07-24T04:55:26;9.52;;;8.60;;
61015;SDS011;46902;52.920;6.536;2023-07-24T04:57:51;9.95;;;8.73;;
61015;SDS011;46902;52.920;6.536;2023-07-24T05:00:17;9.68;;;8.60;;
61015;SDS011;46902;52.920;6.536;2023-07-24T05:02:42;10.13;;;8.73;;
61015;SDS011;46902;52.920;6.536;2023-07-24T05:05:08;9.77;;;8.77;;
61015;SDS011;46902;52.920;6.536;2023-07-24T05:07:34;11.27;;;8.70;;
61015;SDS011;46902;52.920;6.536;2023-07-24T05:10:00;12.93;;;9.48;;
61015;SDS011;46902;52.920;6.536;2023-07-24T05:12:25;9.73;;;8.75;;
61015;SDS011;46902;52.920;6.536;2023-07-24T05:14:51;10.00;;;8.90;;
61015;SDS011;46902;52.920;6.536;2023-07-24T05:17:16;11.18;;;9.82;;
61015;SDS011;46902;52.920;6.536;2023-07-24T05:19:42;11.60;;;9.48;;
61015;SDS011;46902;52.920;6.536;2023-07-24T05:22:08;10.90;;;9.80;;
61015;SDS011;46902;52.920;6.536;2023-07-24T05:24:35;11.02;;;9.93;;
61015;SDS011;46902;52.920;6.536;2023-07-24T05:27:04;11.48;;;9.80;;
61015;SDS011;46902;52.920;6.536;2023-07-24T05:29:30;12.35;;;10.18;;
61015;SDS011;46902;52.920;6.536;2023-07-24T05:31:55;12.02;;;10.18;;
61015;SDS011;46902;52.920;6.536;2023-07-24T05:34:21;11.82;;;9.77;;
61015;SDS011;46902;52.920;6.536;2023-07-24T05:36:47;12.02;;;10.30;;
61015;SDS011;46902;52.920;6.536;2023-07-24T05:39:12;11.85;;;9.82;;
61015;SDS011;46902;52.920;6.536;2023-07-24T05:41:38;10.40;;;9.40;;
61015;SDS011;46902;52.920;6.536;2023-07-24T05:44:04;12.95;;;10.65;;
61015;SDS011;46902;52.920;6.536;2023-07-24T05:46:29;11.98;;;10.15;;
61015;SDS011;46902;52.920;6.536;2023-07-24T05:48:55;11.48;;;10.30;;
61015;SDS011;46902;52.920;6.536;2023-07-24T05:51:21;11.63;;;10.43;;
61015;SDS011;46902;52.920;6.536;2023-07-24T05:53:47;10.88;;;9.77;;
61015;SDS011;46902;52.920;6.536;2023-07-24T05:56:13;11.57;;;10.48;;
61015;SDS011;46902;52.920;6.536;2023-07-24T05:58:38;13.20;;;11.07;;
61015;SDS011;46902;52.920;6.536;2023-07-24T06:01:04;11.02;;;9.90;;
61015;SDS011;46902;52.920;6.536;2023-07-24T06:03:32;11.40;;;10.20;;
61015;SDS011;46902;52.920;6.536;2023-07-24T06:05:58;10.82;;;9.68;;
61015;SDS011;46902;52.920;6.536;2023-07-24T06:08:23;11.85;;;10.18;;
61015;SDS011;46902;52.920;6.536;2023-07-24T06:10:49;11.38;;;9.75;;
61015;SDS011;46902;52.920;6.536;2023-07-24T06:13:16;11.65;;;10.45;;
61015;SDS011;46902;52.920;6.536;2023-07-24T06:15:42;12.85;;;9.80;;
61015;SDS011;46902;52.920;6.536;2023-07-24T06:18:08;12.20;;;10.55;;
61015;SDS011;46902;52.920;6.536;2023-07-24T06:20:34;12.43;;;10.35;;
61015;SDS011;46902;52.920;6.536;2023-07-24T06:22:59;12.60;;;9.10;;
61015;SDS011;46902;52.920;6.536;2023-07-24T06:25:25;11.90;;;9.75;;
61015;SDS011;46902;52.920;6.536;2023-07-24T06:27:50;10.77;;;9.63;;
61015;SDS011;46902;52.920;6.536;2023-07-24T06:30:16;10.90;;;9.50;;
61015;SDS011;46902;52.920;6.536;2023-07-24T06:32:42;10.80;;;9.40;;
61015;SDS011;46902;52.920;6.536;2023-07-24T06:35:08;13.32;;;9.60;;
61015;SDS011;46902;52.920;6.536;2023-07-24T06:37:33;12.02;;;9.15;;
61015;SDS011;46902;52.920;6.536;2023-07-24T06:39:59;13.57;;;9.75;;
61015;SDS011;46902;52.920;6.536;2023-07-24T06:42:24;11.65;;;10.07;;
61015;SDS011;46902;52.920;6.536;2023-07-24T06:44:50;13.18;;;9.77;;
61015;SDS011;46902;52.920;6.536;2023-07-24T06:47:16;11.43;;;8.70;;
61015;SDS011;46902;52.920;6.536;2023-07-24T06:49:41;14.20;;;9.20;;
61015;SDS011;46902;52.920;6.536;2023-07-24T06:52:07;11.85;;;8.88;;
61015;SDS011;46902;52.920;6.536;2023-07-24T06:54:32;11.48;;;9.00;;
61015;SDS011;46902;52.920;6.536;2023-07-24T06:56:58;20.13;;;9.23;;
61015;SDS011;46902;52.920;6.536;2023-07-24T06:59:23;12.30;;;9.00;;
61015;SDS011;46902;52.920;6.536;2023-07-24T07:01:49;14.13;;;9.38;;
61015;SDS011;46902;52.920;6.536;2023-07-24T07:04:15;13.05;;;9.40;;
61015;SDS011;46902;52.920;6.536;2023-07-24T07:06:41;12.20;;;9.40;;
61015;SDS011;46902;52.920;6.536;2023-07-24T07:09:07;12.57;;;9.30;;
61015;SDS011;46902;52.920;6.536;2023-07-24T07:11:32;12.80;;;8.65;;
61015;SDS011;46902;52.920;6.536;2023-07-24T07:13:58;14.85;;;8.85;;
61015;SDS011;46902;52.920;6.536;2023-07-24T07:16:23;14.45;;;9.00;;
61015;SDS011;46902;52.920;6.536;2023-07-24T07:18:49;11.82;;;9.05;;
61015;SDS011;46902;52.920;6.536;2023-07-24T07:21:15;12.32;;;9.10;;
61015;SDS011;46902;52.920;6.536;2023-07-24T07:23:40;14.48;;;8.93;;
61015;SDS011;46902;52.920;6.536;2023-07-24T07:26:06;13.07;;;9.30;;
61015;SDS011;46902;52.920;6.536;2023-07-24T07:28:31;13.05;;;9.15;;
61015;SDS011;46902;52.920;6.536;2023-07-24T07:30:57;12.02;;;9.40;;
61015;SDS011;46902;52.920;6.536;2023-07-24T07:33:22;10.25;;;8.60;;
61015;SDS011;46902;52.920;6.536;2023-07-24T07:35:49;14.93;;;9.25;;
61015;SDS011;46902;52.920;6.536;2023-07-24T07:38:15;11.43;;;8.50;;
61015;SDS011;46902;52.920;6.536;2023-07-24T07:40:41;13.75;;;8.32;;
61015;SDS011;46902;52.920;6.536;2023-07-24T07:43:06;11.80;;;8.52;;
61015;SDS011;46902;52.920;6.536;2023-07-24T07:45:32;10.82;;;8.10;;
61015;SDS011;46902;52.920;6.536;2023-07-24T07:47:58;13.52;;;8.23;;
61015;SDS011;46902;52.920;6.536;2023-07-24T07:50:24;13.57;;;8.13;;
61015;SDS011;46902;52.920;6.536;2023-07-24T07:52:50;13.43;;;8.43;;
61015;SDS011;46902;52.920;6.536;2023-07-24T07:55:17;13.63;;;8.18;;
61015;SDS011;46902;52.920;6.536;2023-07-24T07:57:43;10.23;;;7.53;;
61015;SDS011;46902;52.920;6.536;2023-07-24T08:00:09;16.25;;;8.13;;
61015;SDS011;46902;52.920;6.536;2023-07-24T08:02:35;11.95;;;7.30;;
61015;SDS011;46902;52.920;6.536;2023-07-24T08:05:04;10.90;;;7.05;;
61015;SDS011;46902;52.920;6.536;2023-07-24T08:07:31;10.30;;;7.38;;
61015;SDS011;46902;52.920;6.536;2023-07-24T08:09:57;12.63;;;6.97;;
61015;SDS011;46902;52.920;6.536;2023-07-24T08:12:23;12.07;;;6.50;;
61015;SDS011;46902;52.920;6.536;2023-07-24T08:14:48;11.88;;;6.72;;
61015;SDS011;46902;52.920;6.536;2023-07-24T08:17:14;13.73;;;7.72;;
61015;SDS011;46902;52.920;6.536;2023-07-24T08:19:39;11.73;;;6.65;;
61015;SDS011;46902;52.920;6.536;2023-07-24T08:22:05;9.77;;;6.53;;
61015;SDS011;46902;52.920;6.536;2023-07-24T08:24:33;13.02;;;6.70;;
61015;SDS011;46902;52.920;6.536;2023-07-24T08:27:00;12.40;;;6.53;;
61015;SDS011;46902;52.920;6.536;2023-07-24T08:29:25;12.70;;;6.70;;
61015;SDS011;46902;52.920;6.536;2023-07-24T08:31:51;11.45;;;6.65;;
61015;SDS011;46902;52.920;6.536;2023-07-24T08:34:16;13.43;;;7.57;;
61015;SDS011;46902;52.920;6.536;2023-07-24T08:36:42;10.48;;;6.55;;
61015;SDS011;46902;52.920;6.536;2023-07-24T08:39:08;12.07;;;5.93;;
61015;SDS011;46902;52.920;6.536;2023-07-24T08:41:33;12.07;;;6.55;;
61015;SDS011;46902;52.920;6.536;2023-07-24T08:44:00;16.55;;;7.53;;
61015;SDS011;46902;52.920;6.536;2023-07-24T08:46:27;15.32;;;7.00;;
61015;SDS011;46902;52.920;6.536;2023-07-24T08:48:53;12.82;;;6.47;;
61015;SDS011;46902;52.920;6.536;2023-07-24T08:51:20;15.73;;;6.90;;
61015;SDS011;46902;52.920;6.536;2023-07-24T08:53:47;13.77;;;6.38;;
61015;SDS011;46902;52.920;6.536;2023-07-24T08:56:13;13.88;;;6.05;;
61015;SDS011;46902;52.920;6.536;2023-07-24T08:58:39;13.68;;;6.53;;
61015;SDS011;46902;52.920;6.536;2023-07-24T09:01:06;13.60;;;6.45;;
61015;SDS011;46902;52.920;6.536;2023-07-24T09:03:32;14.43;;;7.50;;
61015;SDS011;46902;52.920;6.536;2023-07-24T09:05:58;12.43;;;7.05;;
61015;SDS011;46902;52.920;6.536;2023-07-24T09:08:36;10.98;;;6.72;;
61015;SDS011;46902;52.920;6.536;2023-07-24T09:11:04;12.15;;;6.43;;
61015;SDS011;46902;52.920;6.536;2023-07-24T09:13:31;16.08;;;6.60;;
61015;SDS011;46902;52.920;6.536;2023-07-24T09:15:57;15.70;;;7.00;;
61015;SDS011;46902;52.920;6.536;2023-07-24T09:18:24;14.57;;;6.82;;
61015;SDS011;46902;52.920;6.536;2023-07-24T09:20:50;13.52;;;6.55;;
61015;SDS011;46902;52.920;6.536;2023-07-24T09:23:17;12.07;;;6.20;;
61015;SDS011;46902;52.920;6.536;2023-07-24T09:25:52;14.63;;;6.13;;
61015;SDS011;46902;52.920;6.536;2023-07-24T09:28:17;13.32;;;6.18;;
61015;SDS011;46902;52.920;6.536;2023-07-24T09:30:52;13.13;;;5.75;;
61015;SDS011;46902;52.920;6.536;2023-07-24T09:33:18;13.98;;;5.55;;
61015;SDS011;46902;52.920;6.536;2023-07-24T09:35:44;14.27;;;6.32;;
61015;SDS011;46902;52.920;6.536;2023-07-24T09:38:10;10.90;;;5.90;;
61015;SDS011;46902;52.920;6.536;2023-07-24T09:40:44;13.20;;;5.57;;
61015;SDS011;46902;52.920;6.536;2023-07-24T09:43:29;14.18;;;5.30;;
61015;SDS011;46902;52.920;6.536;2023-07-24T09:45:55;9.45;;;5.65;;
61015;SDS011;46902;52.920;6.536;2023-07-24T09:48:23;10.65;;;5.22;;
61015;SDS011;46902;52.920;6.536;2023-07-24T09:50:54;11.32;;;5.28;;
61015;SDS011;46902;52.920;6.536;2023-07-24T09:53:32;12.75;;;5.55;;
61015;SDS011;46902;52.920;6.536;2023-07-24T09:56:03;10.52;;;5.45;;
61015;SDS011;46902;52.920;6.536;2023-07-24T09:58:32;11.05;;;5.63;;
61015;SDS011;46902;52.920;6.536;2023-07-24T10:01:00;9.35;;;5.10;;
61015;SDS011;46902;52.920;6.536;2023-07-24T10:03:28;14.13;;;5.97;;
61015;SDS011;46902;52.920;6.536;2023-07-24T10:05:55;11.15;;;5.97;;
61015;SDS011;46902;52.920;6.536;2023-07-24T10:08:21;10.82;;;5.80;;
61015;SDS011;46902;52.920;6.536;2023-07-24T10:10:47;9.55;;;5.13;;
61015;SDS011;46902;52.920;6.536;2023-07-24T10:13:16;7.80;;;4.82;;
61015;SDS011;46902;52.920;6.536;2023-07-24T10:15:43;12.75;;;5.78;;
61015;SDS011;46902;52.920;6.536;2023-07-24T10:18:11;9.77;;;5.47;;
61015;SDS011;46902;52.920;6.536;2023-07-24T10:20:38;11.23;;;5.30;;
61015;SDS011;46902;52.920;6.536;2023-07-24T10:23:06;9.52;;;5.20;;
61015;SDS011;46902;52.920;6.536;2023-07-24T10:25:40;11.23;;;5.20;;
61015;SDS011;46902;52.920;6.536;2023-07-24T10:28:09;9.07;;;4.80;;
61015;SDS011;46902;52.920;6.536;2023-07-24T10:30:40;14.15;;;5.00;;
61015;SDS011;46902;52.920;6.536;2023-07-24T10:33:07;10.55;;;5.18;;
61015;SDS011;46902;52.920;6.536;2023-07-24T10:38:07;9.63;;;5.32;;
61015;SDS011;46902;52.920;6.536;2023-07-24T10:40:33;12.93;;;4.93;;
61015;SDS011;46902;52.920;6.536;2023-07-24T10:43:00;9.02;;;5.40;;
61015;SDS011;46902;52.920;6.536;2023-07-24T10:45:50;11.20;;;5.70;;
61015;SDS011;46902;52.920;6.536;2023-07-24T10:48:17;14.20;;;6.28;;
61015;SDS011;46902;52.920;6.536;2023-07-24T10:50:44;10.07;;;5.07;;
61015;SDS011;46902;52.920;6.536;2023-07-24T10:53:15;10.57;;;5.10;;
61015;SDS011;46902;52.920;6.536;2023-07-24T10:55:42;9.93;;;5.00;;
61015;SDS011;46902;52.920;6.536;2023-07-24T10:58:08;13.75;;;5.47;;
61015;SDS011;46902;52.920;6.536;2023-07-24T11:00:34;11.05;;;5.35;;
61015;SDS011;46902;52.920;6.536;2023-07-24T11:03:00;11.07;;;4.80;;
61015;SDS011;46902;52.920;6.536;2023-07-24T11:05:26;16.88;;;5.88;;
61015;SDS011;46902;52.920;6.536;2023-07-24T11:07:52;13.82;;;5.32;;
61015;SDS011;46902;52.920;6.536;2023-07-24T11:10:18;15.40;;;6.40;;
61015;SDS011;46902;52.920;6.536;2023-07-24T11:12:45;11.52;;;6.10;;
61015;SDS011;46902;52.920;6.536;2023-07-24T11:15:12;10.25;;;5.85;;
61015;SDS011;46902;52.920;6.536;2023-07-24T11:17:39;13.38;;;6.30;;
61015;SDS011;46902;52.920;6.536;2023-07-24T11:22:33;10.07;;;4.47;;
61015;SDS011;46902;52.920;6.536;2023-07-24T11:24:58;7.72;;;4.38;;
61015;SDS011;46902;52.920;6.536;2023-07-24T11:27:26;10.10;;;4.65;;
61015;SDS011;46902;52.920;6.536;2023-07-24T11:29:52;7.70;;;4.53;;
61015;SDS011;46902;52.920;6.536;2023-07-24T11:32:21;13.57;;;5.05;;
61015;SDS011;46902;52.920;6.536;2023-07-24T11:34:47;12.35;;;5.63;;
61015;SDS011;46902;52.920;6.536;2023-07-24T11:37:14;9.52;;;5.03;;
61015;SDS011;46902;52.920;6.536;2023-07-24T11:39:40;9.40;;;5.78;;
61015;SDS011;46902;52.920;6.536;2023-07-24T11:42:06;11.75;;;5.47;;
61015;SDS011;46902;52.920;6.536;2023-07-24T11:44:32;13.77;;;5.32;;
61015;SDS011;46902;52.920;6.536;2023-07-24T11:47:02;10.70;;;5.80;;
61015;SDS011;46902;52.920;6.536;2023-07-24T11:49:29;15.02;;;6.50;;
61015;SDS011;46902;52.920;6.536;2023-07-24T11:52:03;13.45;;;6.15;;
61015;SDS011;46902;52.920;6.536;2023-07-24T11:54:29;14.13;;;6.03;;
61015;SDS011;46902;52.920;6.536;2023-07-24T11:56:55;10.10;;;6.13;;
61015;SDS011;46902;52.920;6.536;2023-07-24T11:59:21;13.68;;;5.72;;
61015;SDS011;46902;52.920;6.536;2023-07-24T12:01:47;10.88;;;5.90;;
61015;SDS011;46902;52.920;6.536;2023-07-24T12:04:13;10.30;;;5.55;;
61015;SDS011;46902;52.920;6.536;2023-07-24T12:06:40;11.43;;;5.22;;
61015;SDS011;46902;52.920;6.536;2023-07-24T12:09:05;11.40;;;5.75;;
61015;SDS011;46902;52.920;6.536;2023-07-24T12:11:31;7.05;;;4.80;;
61015;SDS011;46902;52.920;6.536;2023-07-24T12:13:58;8.77;;;4.68;;
61015;SDS011;46902;52.920;6.536;2023-07-24T12:16:23;8.38;;;4.60;;
61015;SDS011;46902;52.920;6.536;2023-07-24T12:18:49;10.75;;;5.05;;
61015;SDS011;46902;52.920;6.536;2023-07-24T12:21:15;8.98;;;5.20;;
61015;SDS011;46902;52.920;6.536;2023-07-24T12:23:40;8.73;;;4.75;;
61015;SDS011;46902;52.920;6.536;2023-07-24T12:26:06;9.93;;;4.80;;
61015;SDS011;46902;52.920;6.536;2023-07-24T12:28:32;8.93;;;4.53;;
61015;SDS011;46902;52.920;6.536;2023-07-24T12:30:58;10.68;;;4.28;;
61015;SDS011;46902;52.920;6.536;2023-07-24T12:33:23;9.63;;;4.63;;
61015;SDS011;46902;52.920;6.536;2023-07-24T12:35:52;12.07;;;5.15;;
61015;SDS011;46902;52.920;6.536;2023-07-24T12:38:18;10.23;;;4.25;;
61015;SDS011;46902;52.920;6.536;2023-07-24T12:40:43;8.00;;;4.28;;
61015;SDS011;46902;52.920;6.536;2023-07-24T12:43:09;12.50;;;4.57;;
61015;SDS011;46902;52.920;6.536;2023-07-24T12:45:35;7.82;;;4.03;;
61015;SDS011;46902;52.920;6.536;2023-07-24T12:48:00;7.00;;;4.47;;
61015;SDS011;46902;52.920;6.536;2023-07-24T12:50:26;8.80;;;3.95;;
61015;SDS011;46902;52.920;6.536;2023-07-24T12:52:52;6.78;;;3.50;;
61015;SDS011;46902;52.920;6.536;2023-07-24T12:55:17;7.45;;;3.53;;
61015;SDS011;46902;52.920;6.536;2023-07-24T12:57:43;7.57;;;3.17;;
61015;SDS011;46902;52.920;6.536;2023-07-24T13:00:09;7.30;;;3.38;;
61015;SDS011;46902;52.920;6.536;2023-07-24T13:02:35;6.15;;;3.63;;
61015;SDS011;46902;52.920;6.536;2023-07-24T13:05:01;7.90;;;3.88;;
61015;SDS011;46902;52.920;6.536;2023-07-24T13:07:26;6.97;;;3.90;;
61015;SDS011;46902;52.920;6.536;2023-07-24T13:09:53;9.23;;;4.32;;
61015;SDS011;46902;52.920;6.536;2023-07-24T13:12:19;4.90;;;3.63;;
61015;SDS011;46902;52.920;6.536;2023-07-24T13:14:45;9.07;;;3.72;;
61015;SDS011;46902;52.920;6.536;2023-07-24T13:17:10;5.22;;;3.42;;
61015;SDS011;46902;52.920;6.536;2023-07-24T13:19:36;7.43;;;4.18;;
61015;SDS011;46902;52.920;6.536;2023-07-24T13:22:01;5.97;;;4.03;;
61015;SDS011;46902;52.920;6.536;2023-07-24T13:24:27;7.05;;;4.32;;
61015;SDS011;46902;52.920;6.536;2023-07-24T13:26:53;5.35;;;3.72;;
61015;SDS011;46902;52.920;6.536;2023-07-24T13:29:18;6.68;;;3.80;;
61015;SDS011;46902;52.920;6.536;2023-07-24T13:31:44;5.65;;;3.83;;
61015;SDS011;46902;52.920;6.536;2023-07-24T13:34:09;5.60;;;3.72;;
61015;SDS011;46902;52.920;6.536;2023-07-24T13:36:35;7.68;;;4.10;;
61015;SDS011;46902;52.920;6.536;2023-07-24T13:39:00;4.70;;;3.72;;
61015;SDS011;46902;52.920;6.536;2023-07-24T13:41:26;7.50;;;3.60;;
61015;SDS011;46902;52.920;6.536;2023-07-24T13:43:52;5.00;;;3.83;;
61015;SDS011;46902;52.920;6.536;2023-07-24T13:46:18;4.80;;;3.78;;
61015;SDS011;46902;52.920;6.536;2023-07-24T13:48:43;5.90;;;4.25;;
61015;SDS011;46902;52.920;6.536;2023-07-24T13:51:09;5.25;;;3.72;;
61015;SDS011;46902;52.920;6.536;2023-07-24T13:53:35;5.07;;;3.03;;
61015;SDS011;46902;52.920;6.536;2023-07-24T13:56:01;6.32;;;2.83;;
61015;SDS011;46902;52.920;6.536;2023-07-24T13:58:27;4.00;;;2.63;;
61015;SDS011;46902;52.920;6.536;2023-07-24T14:00:53;2.65;;;2.33;;
61015;SDS011;46902;52.920;6.536;2023-07-24T14:03:18;3.10;;;2.22;;
61015;SDS011;46902;52.920;6.536;2023-07-24T14:05:44;3.50;;;2.10;;
61015;SDS011;46902;52.920;6.536;2023-07-24T14:08:09;4.15;;;1.90;;
61015;SDS011;46902;52.920;6.536;2023-07-24T14:10:36;3.30;;;1.85;;
61015;SDS011;46902;52.920;6.536;2023-07-24T14:13:02;3.25;;;1.90;;
61015;SDS011;46902;52.920;6.536;2023-07-24T14:15:28;3.25;;;2.10;;
61015;SDS011;46902;52.920;6.536;2023-07-24T14:17:54;5.72;;;1.95;;
61015;SDS011;46902;52.920;6.536;2023-07-24T14:20:20;3.13;;;2.08;;
61015;SDS011;46902;52.920;6.536;2023-07-24T14:22:45;2.83;;;1.70;;
61015;SDS011;46902;52.920;6.536;2023-07-24T14:25:11;6.35;;;2.10;;
61015;SDS011;46902;52.920;6.536;2023-07-24T14:27:37;5.35;;;1.70;;
61015;SDS011;46902;52.920;6.536;2023-07-24T14:30:02;3.85;;;1.60;;
61015;SDS011;46902;52.920;6.536;2023-07-24T14:32:28;5.55;;;1.75;;
61015;SDS011;46902;52.920;6.536;2023-07-24T14:34:54;3.65;;;1.60;;
61015;SDS011;46902;52.920;6.536;2023-07-24T14:37:20;3.80;;;1.42;;
61015;SDS011;46902;52.920;6.536;2023-07-24T14:39:45;5.65;;;1.60;;